sensor_id;sensor_type;location;lat;lon;timestamp;P1;durP1;ratioP1;P2;durP2;ratioP2
18210;SDS011;9231;48.852;9.882;2022-12-17T00:01:13;14.60;;;8.43;;
18210;SDS011;9231;48.852;9.882;2022-12-17T00:03:57;12.07;;;6.93;;
18210;SDS011;9231;48.852;9.882;2022-12-17T00:06:40;12.83;;;7.47;;
18210;SDS011;9231;48.852;9.882;2022-12-17T00:09:25;12.40;;;7.63;;
18210;SDS011;9231;48.852;9.882;2022-12-17T00:12:08;11.63;;;6.60;;
18210;SDS011;9231;48.852;9.882;2022-12-17T00:14:52;13.33;;;7.33;;
18210;SDS011;9231;48.852;9.882;2022-12-17T00:17:38;14.97;;;6.97;;
18210;SDS011;9231;48.852;9.882;2022-12-17T00:20:21;9.87;;;6.77;;
18210;SDS011;9231;48.852;9.882;2022-12-17T00:23:05;13.57;;;6.83;;
18210;SDS011;9231;48.852;9.882;2022-12-17T00:25:50;11.50;;;6.13;;
18210;SDS011;9231;48.852;9.882;2022-12-17T00:28:33;13.53;;;7.17;;
18210;SDS011;9231;48.852;9.882;2022-12-17T00:31:17;12.53;;;7.43;;
18210;SDS011;9231;48.852;9.882;2022-12-17T00:34:02;16.33;;;7.87;;
18210;SDS011;9231;48.852;9.882;2022-12-17T00:36:46;13.03;;;8.47;;
18210;SDS011;9231;48.852;9.882;2022-12-17T00:39:30;15.50;;;8.03;;
18210;SDS011;9231;48.852;9.882;2022-12-17T00:42:14;12.47;;;7.37;;
18210;SDS011;9231;48.852;9.882;2022-12-17T00:44:58;14.40;;;7.03;;
18210;SDS011;9231;48.852;9.882;2022-12-17T00:47:42;10.07;;;6.73;;
18210;SDS011;9231;48.852;9.882;2022-12-17T00:50:27;14.40;;;6.73;;
18210;SDS011;9231;48.852;9.882;2022-12-17T00:53:11;12.87;;;7.47;;
18210;SDS011;9231;48.852;9.882;2022-12-17T00:55:55;11.30;;;6.93;;
18210;SDS011;9231;48.852;9.882;2022-12-17T00:58:39;13.63;;;6.70;;
18210;SDS011;9231;48.852;9.882;2022-12-17T01:01:23;10.60;;;6.90;;
18210;SDS011;9231;48.852;9.882;2022-12-17T01:04:07;16.60;;;7.37;;
18210;SDS011;9231;48.852;9.882;2022-12-17T01:06:52;9.90;;;6.30;;
18210;SDS011;9231;48.852;9.882;2022-12-17T01:09:36;12.63;;;6.87;;
18210;SDS011;9231;48.852;9.882;2022-12-17T01:12:20;11.90;;;6.87;;
18210;SDS011;9231;48.852;9.882;2022-12-17T01:15:04;16.20;;;7.03;;
18210;SDS011;9231;48.852;9.882;2022-12-17T01:17:48;10.03;;;6.83;;
18210;SDS011;9231;48.852;9.882;2022-12-17T01:20:32;14.67;;;6.90;;
18210;SDS011;9231;48.852;9.882;2022-12-17T01:23:18;13.80;;;6.40;;
18210;SDS011;9231;48.852;9.882;2022-12-17T01:26:02;10.90;;;6.57;;
18210;SDS011;9231;48.852;9.882;2022-12-17T01:28:46;14.23;;;7.77;;
18210;SDS011;9231;48.852;9.882;2022-12-17T01:31:32;15.07;;;8.97;;
18210;SDS011;9231;48.852;9.882;2022-12-17T01:34:17;15.37;;;8.47;;
18210;SDS011;9231;48.852;9.882;2022-12-17T01:37:01;30.37;;;14.87;;
18210;SDS011;9231;48.852;9.882;2022-12-17T01:39:46;33.97;;;15.90;;
18210;SDS011;9231;48.852;9.882;2022-12-17T01:42:35;30.43;;;16.00;;
18210;SDS011;9231;48.852;9.882;2022-12-17T01:45:19;25.23;;;13.30;;
18210;SDS011;9231;48.852;9.882;2022-12-17T01:48:03;22.77;;;11.00;;
18210;SDS011;9231;48.852;9.882;2022-12-17T01:50:51;16.60;;;10.03;;
18210;SDS011;9231;48.852;9.882;2022-12-17T01:53:36;18.90;;;11.17;;
18210;SDS011;9231;48.852;9.882;2022-12-17T01:56:22;16.47;;;8.43;;
18210;SDS011;9231;48.852;9.882;2022-12-17T01:59:06;16.90;;;7.80;;
18210;SDS011;9231;48.852;9.882;2022-12-17T02:01:50;16.27;;;9.27;;
18210;SDS011;9231;48.852;9.882;2022-12-17T02:04:34;12.40;;;7.47;;
18210;SDS011;9231;48.852;9.882;2022-12-17T02:07:20;12.00;;;7.23;;
18210;SDS011;9231;48.852;9.882;2022-12-17T02:10:10;14.07;;;7.57;;
18210;SDS011;9231;48.852;9.882;2022-12-17T02:12:58;12.57;;;7.20;;
18210;SDS011;9231;48.852;9.882;2022-12-17T02:15:45;11.10;;;6.77;;
18210;SDS011;9231;48.852;9.882;2022-12-17T02:18:31;14.27;;;8.43;;
18210;SDS011;9231;48.852;9.882;2022-12-17T02:21:18;13.60;;;7.57;;
18210;SDS011;9231;48.852;9.882;2022-12-17T02:24:03;12.27;;;7.23;;
18210;SDS011;9231;48.852;9.882;2022-12-17T02:26:54;12.50;;;7.27;;
18210;SDS011;9231;48.852;9.882;2022-12-17T02:29:39;15.03;;;7.53;;
18210;SDS011;9231;48.852;9.882;2022-12-17T02:32:25;18.83;;;8.40;;
18210;SDS011;9231;48.852;9.882;2022-12-17T02:35:12;17.83;;;8.97;;
18210;SDS011;9231;48.852;9.882;2022-12-17T02:37:55;13.70;;;7.60;;
18210;SDS011;9231;48.852;9.882;2022-12-17T02:40:47;18.00;;;9.63;;
18210;SDS011;9231;48.852;9.882;2022-12-17T02:43:32;21.30;;;8.70;;
18210;SDS011;9231;48.852;9.882;2022-12-17T02:46:16;23.10;;;9.43;;
18210;SDS011;9231;48.852;9.882;2022-12-17T02:49:01;19.90;;;10.23;;
18210;SDS011;9231;48.852;9.882;2022-12-17T02:51:44;21.93;;;9.33;;
18210;SDS011;9231;48.852;9.882;2022-12-17T02:54:28;16.63;;;8.80;;
18210;SDS011;9231;48.852;9.882;2022-12-17T02:57:12;17.30;;;8.60;;
18210;SDS011;9231;48.852;9.882;2022-12-17T02:59:57;15.00;;;8.00;;
18210;SDS011;9231;48.852;9.882;2022-12-17T03:02:41;18.70;;;8.00;;
18210;SDS011;9231;48.852;9.882;2022-12-17T03:05:25;25.77;;;10.10;;
18210;SDS011;9231;48.852;9.882;2022-12-17T03:08:09;20.43;;;9.17;;
18210;SDS011;9231;48.852;9.882;2022-12-17T03:10:53;27.53;;;10.40;;
18210;SDS011;9231;48.852;9.882;2022-12-17T03:13:37;23.93;;;9.77;;
18210;SDS011;9231;48.852;9.882;2022-12-17T03:16:22;22.23;;;8.37;;
18210;SDS011;9231;48.852;9.882;2022-12-17T03:19:07;23.13;;;9.17;;
18210;SDS011;9231;48.852;9.882;2022-12-17T03:21:51;19.27;;;9.13;;
18210;SDS011;9231;48.852;9.882;2022-12-17T03:24:34;17.43;;;9.00;;
18210;SDS011;9231;48.852;9.882;2022-12-17T03:27:18;18.13;;;8.43;;
18210;SDS011;9231;48.852;9.882;2022-12-17T03:30:02;14.17;;;8.70;;
18210;SDS011;9231;48.852;9.882;2022-12-17T03:32:48;18.13;;;8.63;;
18210;SDS011;9231;48.852;9.882;2022-12-17T03:35:32;22.97;;;9.57;;
18210;SDS011;9231;48.852;9.882;2022-12-17T03:38:16;22.90;;;9.80;;
18210;SDS011;9231;48.852;9.882;2022-12-17T03:41:00;26.43;;;10.03;;
18210;SDS011;9231;48.852;9.882;2022-12-17T03:43:44;19.47;;;8.40;;
18210;SDS011;9231;48.852;9.882;2022-12-17T03:46:28;25.13;;;10.83;;
18210;SDS011;9231;48.852;9.882;2022-12-17T03:49:13;22.23;;;10.23;;
18210;SDS011;9231;48.852;9.882;2022-12-17T03:51:57;22.63;;;9.73;;
18210;SDS011;9231;48.852;9.882;2022-12-17T03:54:40;23.73;;;9.43;;
18210;SDS011;9231;48.852;9.882;2022-12-17T03:57:24;21.17;;;9.73;;
18210;SDS011;9231;48.852;9.882;2022-12-17T04:00:09;24.83;;;11.20;;
18210;SDS011;9231;48.852;9.882;2022-12-17T04:02:53;29.17;;;9.73;;
18210;SDS011;9231;48.852;9.882;2022-12-17T04:05:38;22.47;;;10.37;;
18210;SDS011;9231;48.852;9.882;2022-12-17T04:08:22;23.63;;;10.07;;
18210;SDS011;9231;48.852;9.882;2022-12-17T04:11:06;22.77;;;10.83;;
18210;SDS011;9231;48.852;9.882;2022-12-17T04:13:50;32.47;;;12.97;;
18210;SDS011;9231;48.852;9.882;2022-12-17T04:16:34;31.83;;;12.07;;
18210;SDS011;9231;48.852;9.882;2022-12-17T04:19:18;23.77;;;11.37;;
18210;SDS011;9231;48.852;9.882;2022-12-17T04:22:03;18.63;;;9.07;;
18210;SDS011;9231;48.852;9.882;2022-12-17T04:24:59;19.10;;;9.13;;
18210;SDS011;9231;48.852;9.882;2022-12-17T04:27:46;23.00;;;9.60;;
18210;SDS011;9231;48.852;9.882;2022-12-17T04:30:29;28.73;;;11.10;;
18210;SDS011;9231;48.852;9.882;2022-12-17T04:33:13;24.63;;;8.67;;
18210;SDS011;9231;48.852;9.882;2022-12-17T04:35:57;39.43;;;10.83;;
18210;SDS011;9231;48.852;9.882;2022-12-17T04:38:43;30.53;;;10.30;;
18210;SDS011;9231;48.852;9.882;2022-12-17T04:41:27;25.43;;;10.37;;
18210;SDS011;9231;48.852;9.882;2022-12-17T04:44:11;23.90;;;10.73;;
18210;SDS011;9231;48.852;9.882;2022-12-17T04:46:55;25.50;;;10.10;;
18210;SDS011;9231;48.852;9.882;2022-12-17T04:49:39;22.93;;;10.40;;
18210;SDS011;9231;48.852;9.882;2022-12-17T04:52:23;33.47;;;10.03;;
18210;SDS011;9231;48.852;9.882;2022-12-17T04:55:08;39.73;;;11.60;;
18210;SDS011;9231;48.852;9.882;2022-12-17T04:57:52;9.83;;;4.77;;
18210;SDS011;9231;48.852;9.882;2022-12-17T05:00:36;33.20;;;9.83;;
18210;SDS011;9231;48.852;9.882;2022-12-17T05:03:20;28.40;;;8.37;;
18210;SDS011;9231;48.852;9.882;2022-12-17T05:06:04;20.90;;;9.50;;
18210;SDS011;9231;48.852;9.882;2022-12-17T05:08:48;25.07;;;10.77;;
18210;SDS011;9231;48.852;9.882;2022-12-17T05:11:33;30.93;;;11.50;;
18210;SDS011;9231;48.852;9.882;2022-12-17T05:14:17;21.43;;;10.83;;
18210;SDS011;9231;48.852;9.882;2022-12-17T05:17:01;25.80;;;11.30;;
18210;SDS011;9231;48.852;9.882;2022-12-17T05:19:45;30.80;;;11.03;;
18210;SDS011;9231;48.852;9.882;2022-12-17T05:22:29;24.10;;;12.20;;
18210;SDS011;9231;48.852;9.882;2022-12-17T05:25:13;33.20;;;11.67;;
18210;SDS011;9231;48.852;9.882;2022-12-17T05:27:59;30.33;;;11.07;;
18210;SDS011;9231;48.852;9.882;2022-12-17T05:30:49;32.00;;;12.30;;
18210;SDS011;9231;48.852;9.882;2022-12-17T05:33:33;23.77;;;12.57;;
18210;SDS011;9231;48.852;9.882;2022-12-17T05:36:17;33.97;;;13.07;;
18210;SDS011;9231;48.852;9.882;2022-12-17T05:39:01;31.43;;;12.47;;
18210;SDS011;9231;48.852;9.882;2022-12-17T05:41:45;27.40;;;12.63;;
18210;SDS011;9231;48.852;9.882;2022-12-17T05:44:30;27.90;;;13.93;;
18210;SDS011;9231;48.852;9.882;2022-12-17T05:47:14;28.63;;;13.43;;
18210;SDS011;9231;48.852;9.882;2022-12-17T05:49:58;29.00;;;13.67;;
18210;SDS011;9231;48.852;9.882;2022-12-17T05:52:42;34.90;;;12.80;;
18210;SDS011;9231;48.852;9.882;2022-12-17T05:55:26;27.90;;;13.17;;
18210;SDS011;9231;48.852;9.882;2022-12-17T05:58:10;31.00;;;14.33;;
18210;SDS011;9231;48.852;9.882;2022-12-17T06:00:56;30.37;;;13.57;;
18210;SDS011;9231;48.852;9.882;2022-12-17T06:03:42;26.30;;;11.63;;
18210;SDS011;9231;48.852;9.882;2022-12-17T06:06:26;31.03;;;13.97;;
18210;SDS011;9231;48.852;9.882;2022-12-17T06:09:06;28.50;;;13.33;;
18210;SDS011;9231;48.852;9.882;2022-12-17T06:11:50;27.30;;;12.20;;
18210;SDS011;9231;48.852;9.882;2022-12-17T06:14:34;28.23;;;13.17;;
18210;SDS011;9231;48.852;9.882;2022-12-17T06:17:19;36.17;;;15.47;;
18210;SDS011;9231;48.852;9.882;2022-12-17T06:20:04;32.83;;;15.40;;
18210;SDS011;9231;48.852;9.882;2022-12-17T06:22:57;36.13;;;15.07;;
18210;SDS011;9231;48.852;9.882;2022-12-17T06:25:41;39.53;;;17.03;;
18210;SDS011;9231;48.852;9.882;2022-12-17T06:28:25;37.20;;;15.53;;
18210;SDS011;9231;48.852;9.882;2022-12-17T06:31:09;31.20;;;16.13;;
18210;SDS011;9231;48.852;9.882;2022-12-17T06:33:54;25.53;;;14.10;;
18210;SDS011;9231;48.852;9.882;2022-12-17T06:36:38;27.93;;;14.37;;
18210;SDS011;9231;48.852;9.882;2022-12-17T06:39:22;27.33;;;14.40;;
18210;SDS011;9231;48.852;9.882;2022-12-17T06:42:06;29.50;;;14.87;;
18210;SDS011;9231;48.852;9.882;2022-12-17T06:44:50;25.70;;;12.87;;
18210;SDS011;9231;48.852;9.882;2022-12-17T06:47:34;25.50;;;13.03;;
18210;SDS011;9231;48.852;9.882;2022-12-17T06:50:19;34.40;;;14.87;;
18210;SDS011;9231;48.852;9.882;2022-12-17T06:53:04;34.90;;;16.10;;
18210;SDS011;9231;48.852;9.882;2022-12-17T06:55:48;32.83;;;16.43;;
18210;SDS011;9231;48.852;9.882;2022-12-17T06:58:32;33.33;;;14.90;;
18210;SDS011;9231;48.852;9.882;2022-12-17T07:01:16;38.97;;;16.00;;
18210;SDS011;9231;48.852;9.882;2022-12-17T07:04:00;33.50;;;15.73;;
18210;SDS011;9231;48.852;9.882;2022-12-17T07:06:45;28.73;;;13.73;;
18210;SDS011;9231;48.852;9.882;2022-12-17T07:09:29;32.20;;;14.80;;
18210;SDS011;9231;48.852;9.882;2022-12-17T07:12:13;38.37;;;14.40;;
18210;SDS011;9231;48.852;9.882;2022-12-17T07:15:06;34.73;;;15.07;;
18210;SDS011;9231;48.852;9.882;2022-12-17T07:17:54;31.70;;;13.33;;
18210;SDS011;9231;48.852;9.882;2022-12-17T07:20:38;29.83;;;14.50;;
18210;SDS011;9231;48.852;9.882;2022-12-17T07:23:25;31.70;;;13.50;;
18210;SDS011;9231;48.852;9.882;2022-12-17T07:26:09;32.73;;;14.33;;
18210;SDS011;9231;48.852;9.882;2022-12-17T07:28:53;33.97;;;14.50;;
18210;SDS011;9231;48.852;9.882;2022-12-17T07:31:37;30.00;;;13.60;;
18210;SDS011;9231;48.852;9.882;2022-12-17T07:34:21;35.70;;;14.50;;
18210;SDS011;9231;48.852;9.882;2022-12-17T07:37:07;36.07;;;15.80;;
18210;SDS011;9231;48.852;9.882;2022-12-17T07:39:52;32.37;;;16.80;;
18210;SDS011;9231;48.852;9.882;2022-12-17T07:42:37;36.87;;;18.50;;
18210;SDS011;9231;48.852;9.882;2022-12-17T07:45:22;41.53;;;19.77;;
18210;SDS011;9231;48.852;9.882;2022-12-17T07:48:05;40.33;;;19.80;;
18210;SDS011;9231;48.852;9.882;2022-12-17T07:50:49;33.03;;;17.13;;
18210;SDS011;9231;48.852;9.882;2022-12-17T07:53:33;34.57;;;15.07;;
18210;SDS011;9231;48.852;9.882;2022-12-17T07:56:19;31.23;;;15.93;;
18210;SDS011;9231;48.852;9.882;2022-12-17T07:59:02;41.07;;;20.17;;
18210;SDS011;9231;48.852;9.882;2022-12-17T08:01:47;24.80;;;14.60;;
18210;SDS011;9231;48.852;9.882;2022-12-17T08:04:30;31.37;;;15.87;;
18210;SDS011;9231;48.852;9.882;2022-12-17T08:07:29;27.47;;;14.17;;
18210;SDS011;9231;48.852;9.882;2022-12-17T08:10:15;35.13;;;19.03;;
18210;SDS011;9231;48.852;9.882;2022-12-17T08:13:02;36.27;;;17.20;;
18210;SDS011;9231;48.852;9.882;2022-12-17T08:15:46;30.97;;;15.90;;
18210;SDS011;9231;48.852;9.882;2022-12-17T08:18:30;43.50;;;19.13;;
18210;SDS011;9231;48.852;9.882;2022-12-17T08:21:14;32.27;;;15.50;;
18210;SDS011;9231;48.852;9.882;2022-12-17T08:24:01;32.00;;;17.50;;
18210;SDS011;9231;48.852;9.882;2022-12-17T08:26:46;32.30;;;16.17;;
18210;SDS011;9231;48.852;9.882;2022-12-17T08:29:32;32.13;;;15.63;;
18210;SDS011;9231;48.852;9.882;2022-12-17T08:32:16;34.90;;;18.80;;
18210;SDS011;9231;48.852;9.882;2022-12-17T08:35:05;37.90;;;18.57;;
18210;SDS011;9231;48.852;9.882;2022-12-17T08:37:49;42.10;;;18.17;;
18210;SDS011;9231;48.852;9.882;2022-12-17T08:40:33;40.50;;;19.77;;
18210;SDS011;9231;48.852;9.882;2022-12-17T08:43:17;37.57;;;19.90;;
18210;SDS011;9231;48.852;9.882;2022-12-17T08:46:02;39.20;;;19.33;;
18210;SDS011;9231;48.852;9.882;2022-12-17T08:48:46;39.17;;;18.27;;
18210;SDS011;9231;48.852;9.882;2022-12-17T08:51:30;37.67;;;18.50;;
18210;SDS011;9231;48.852;9.882;2022-12-17T08:54:17;35.07;;;17.43;;
18210;SDS011;9231;48.852;9.882;2022-12-17T08:57:01;36.23;;;19.03;;
18210;SDS011;9231;48.852;9.882;2022-12-17T08:59:47;33.03;;;18.63;;
18210;SDS011;9231;48.852;9.882;2022-12-17T09:02:32;34.93;;;18.03;;
18210;SDS011;9231;48.852;9.882;2022-12-17T09:05:17;42.93;;;19.23;;
18210;SDS011;9231;48.852;9.882;2022-12-17T09:08:09;37.77;;;19.33;;
18210;SDS011;9231;48.852;9.882;2022-12-17T09:10:53;36.50;;;18.47;;
18210;SDS011;9231;48.852;9.882;2022-12-17T09:13:37;28.77;;;17.33;;
18210;SDS011;9231;48.852;9.882;2022-12-17T09:16:21;39.30;;;18.80;;
18210;SDS011;9231;48.852;9.882;2022-12-17T09:19:08;35.83;;;19.33;;
18210;SDS011;9231;48.852;9.882;2022-12-17T09:21:52;35.37;;;16.50;;
18210;SDS011;9231;48.852;9.882;2022-12-17T09:24:50;30.27;;;16.63;;
18210;SDS011;9231;48.852;9.882;2022-12-17T09:27:34;34.47;;;17.13;;
18210;SDS011;9231;48.852;9.882;2022-12-17T09:30:18;37.43;;;19.53;;
18210;SDS011;9231;48.852;9.882;2022-12-17T09:33:03;35.57;;;17.97;;
18210;SDS011;9231;48.852;9.882;2022-12-17T09:35:48;39.07;;;17.83;;
18210;SDS011;9231;48.852;9.882;2022-12-17T09:38:32;37.63;;;19.17;;
18210;SDS011;9231;48.852;9.882;2022-12-17T09:41:17;41.60;;;19.03;;
18210;SDS011;9231;48.852;9.882;2022-12-17T09:44:07;32.80;;;16.73;;
18210;SDS011;9231;48.852;9.882;2022-12-17T09:46:57;38.97;;;19.60;;
18210;SDS011;9231;48.852;9.882;2022-12-17T09:49:44;40.80;;;19.17;;
18210;SDS011;9231;48.852;9.882;2022-12-17T09:52:30;37.57;;;17.73;;
18210;SDS011;9231;48.852;9.882;2022-12-17T09:55:17;40.33;;;19.80;;
18210;SDS011;9231;48.852;9.882;2022-12-17T09:58:17;34.00;;;18.00;;
18210;SDS011;9231;48.852;9.882;2022-12-17T10:01:02;42.37;;;20.00;;
18210;SDS011;9231;48.852;9.882;2022-12-17T10:03:45;41.20;;;21.50;;
18210;SDS011;9231;48.852;9.882;2022-12-17T10:06:30;39.17;;;20.10;;
18210;SDS011;9231;48.852;9.882;2022-12-17T10:09:16;40.47;;;19.70;;
18210;SDS011;9231;48.852;9.882;2022-12-17T10:12:09;39.83;;;19.50;;
18210;SDS011;9231;48.852;9.882;2022-12-17T10:14:54;41.00;;;19.33;;
18210;SDS011;9231;48.852;9.882;2022-12-17T10:17:38;36.97;;;18.23;;
18210;SDS011;9231;48.852;9.882;2022-12-17T10:20:23;40.43;;;18.73;;
18210;SDS011;9231;48.852;9.882;2022-12-17T10:23:10;40.43;;;18.30;;
18210;SDS011;9231;48.852;9.882;2022-12-17T10:26:06;42.70;;;19.50;;
18210;SDS011;9231;48.852;9.882;2022-12-17T10:28:50;41.77;;;20.63;;
18210;SDS011;9231;48.852;9.882;2022-12-17T10:31:34;41.43;;;19.47;;
18210;SDS011;9231;48.852;9.882;2022-12-17T10:34:19;41.37;;;22.00;;
18210;SDS011;9231;48.852;9.882;2022-12-17T10:37:04;41.17;;;20.33;;
18210;SDS011;9231;48.852;9.882;2022-12-17T10:39:55;39.73;;;20.27;;
18210;SDS011;9231;48.852;9.882;2022-12-17T10:42:46;40.17;;;21.40;;
18210;SDS011;9231;48.852;9.882;2022-12-17T10:45:30;42.93;;;21.30;;
18210;SDS011;9231;48.852;9.882;2022-12-17T10:48:18;46.07;;;21.70;;
18210;SDS011;9231;48.852;9.882;2022-12-17T10:51:03;47.23;;;21.97;;
18210;SDS011;9231;48.852;9.882;2022-12-17T10:53:48;41.67;;;21.07;;
18210;SDS011;9231;48.852;9.882;2022-12-17T10:56:32;46.63;;;21.50;;
18210;SDS011;9231;48.852;9.882;2022-12-17T10:59:24;46.77;;;23.13;;
18210;SDS011;9231;48.852;9.882;2022-12-17T11:02:11;45.10;;;20.50;;
18210;SDS011;9231;48.852;9.882;2022-12-17T11:04:58;40.53;;;21.27;;
18210;SDS011;9231;48.852;9.882;2022-12-17T11:07:42;38.83;;;20.30;;
18210;SDS011;9231;48.852;9.882;2022-12-17T11:10:26;49.87;;;21.43;;
18210;SDS011;9231;48.852;9.882;2022-12-17T11:13:11;47.00;;;23.37;;
18210;SDS011;9231;48.852;9.882;2022-12-17T11:16:02;47.00;;;24.87;;
18210;SDS011;9231;48.852;9.882;2022-12-17T11:18:50;43.93;;;21.13;;
18210;SDS011;9231;48.852;9.882;2022-12-17T11:21:37;61.93;;;22.70;;
18210;SDS011;9231;48.852;9.882;2022-12-17T11:24:22;50.87;;;24.43;;
18210;SDS011;9231;48.852;9.882;2022-12-17T11:27:07;44.20;;;22.63;;
18210;SDS011;9231;48.852;9.882;2022-12-17T11:29:53;42.33;;;22.37;;
18210;SDS011;9231;48.852;9.882;2022-12-17T11:35:34;43.07;;;20.00;;
18210;SDS011;9231;48.852;9.882;2022-12-17T11:38:26;38.17;;;18.43;;
18210;SDS011;9231;48.852;9.882;2022-12-17T11:41:14;37.50;;;19.90;;
18210;SDS011;9231;48.852;9.882;2022-12-17T11:44:02;44.73;;;18.47;;
18210;SDS011;9231;48.852;9.882;2022-12-17T11:46:49;37.10;;;19.57;;
18210;SDS011;9231;48.852;9.882;2022-12-17T11:49:38;39.97;;;19.27;;
18210;SDS011;9231;48.852;9.882;2022-12-17T11:52:26;36.60;;;17.53;;
18210;SDS011;9231;48.852;9.882;2022-12-17T11:55:16;38.13;;;19.37;;
18210;SDS011;9231;48.852;9.882;2022-12-17T11:58:02;41.83;;;20.17;;
18210;SDS011;9231;48.852;9.882;2022-12-17T12:03:47;42.57;;;21.13;;
18210;SDS011;9231;48.852;9.882;2022-12-17T12:06:36;37.73;;;20.77;;
18210;SDS011;9231;48.852;9.882;2022-12-17T12:09:25;40.50;;;18.87;;
18210;SDS011;9231;48.852;9.882;2022-12-17T12:12:13;44.37;;;21.13;;
18210;SDS011;9231;48.852;9.882;2022-12-17T12:15:00;42.90;;;21.53;;
18210;SDS011;9231;48.852;9.882;2022-12-17T12:17:47;36.90;;;19.47;;
18210;SDS011;9231;48.852;9.882;2022-12-17T12:20:36;35.57;;;18.43;;
18210;SDS011;9231;48.852;9.882;2022-12-17T12:23:29;41.67;;;21.40;;
18210;SDS011;9231;48.852;9.882;2022-12-17T12:26:21;37.17;;;20.53;;
18210;SDS011;9231;48.852;9.882;2022-12-17T12:29:07;42.80;;;21.90;;
18210;SDS011;9231;48.852;9.882;2022-12-17T12:31:55;44.47;;;22.13;;
18210;SDS011;9231;48.852;9.882;2022-12-17T12:34:42;47.60;;;22.33;;
18210;SDS011;9231;48.852;9.882;2022-12-17T12:37:27;45.97;;;23.50;;
18210;SDS011;9231;48.852;9.882;2022-12-17T12:40:13;44.97;;;24.47;;
18210;SDS011;9231;48.852;9.882;2022-12-17T12:43:00;43.00;;;22.40;;
18210;SDS011;9231;48.852;9.882;2022-12-17T12:45:48;44.90;;;23.20;;
18210;SDS011;9231;48.852;9.882;2022-12-17T12:48:37;45.83;;;22.37;;
18210;SDS011;9231;48.852;9.882;2022-12-17T12:51:23;43.57;;;22.80;;
18210;SDS011;9231;48.852;9.882;2022-12-17T12:54:24;42.13;;;22.77;;
18210;SDS011;9231;48.852;9.882;2022-12-17T12:57:25;41.73;;;21.23;;
18210;SDS011;9231;48.852;9.882;2022-12-17T13:00:21;45.87;;;22.13;;
18210;SDS011;9231;48.852;9.882;2022-12-17T13:03:06;43.07;;;22.87;;
18210;SDS011;9231;48.852;9.882;2022-12-17T13:05:50;43.57;;;23.40;;
18210;SDS011;9231;48.852;9.882;2022-12-17T13:08:17;43.07;;;23.00;;
18210;SDS011;9231;48.852;9.882;2022-12-17T13:10:45;170.43;;;68.53;;
18210;SDS011;9231;48.852;9.882;2022-12-17T13:13:12;187.23;;;64.07;;
18210;SDS011;9231;48.852;9.882;2022-12-17T13:15:50;188.10;;;64.80;;
18210;SDS011;9231;48.852;9.882;2022-12-17T13:18:20;169.90;;;62.43;;
18210;SDS011;9231;48.852;9.882;2022-12-17T13:20:59;163.80;;;63.93;;
18210;SDS011;9231;48.852;9.882;2022-12-17T13:23:28;142.83;;;59.07;;
18210;SDS011;9231;48.852;9.882;2022-12-17T13:26:14;139.07;;;56.53;;
18210;SDS011;9231;48.852;9.882;2022-12-17T13:28:41;124.37;;;53.23;;
18210;SDS011;9231;48.852;9.882;2022-12-17T13:31:15;112.50;;;51.70;;
18210;SDS011;9231;48.852;9.882;2022-12-17T13:33:43;113.17;;;51.60;;
18210;SDS011;9231;48.852;9.882;2022-12-17T13:36:13;92.90;;;45.97;;
18210;SDS011;9231;48.852;9.882;2022-12-17T13:38:43;96.47;;;48.10;;
18210;SDS011;9231;48.852;9.882;2022-12-17T13:41:11;91.27;;;45.50;;
18210;SDS011;9231;48.852;9.882;2022-12-17T13:43:38;80.87;;;43.53;;
18210;SDS011;9231;48.852;9.882;2022-12-17T13:46:16;55.50;;;31.47;;
18210;SDS011;9231;48.852;9.882;2022-12-17T13:48:43;43.27;;;25.77;;
18210;SDS011;9231;48.852;9.882;2022-12-17T13:51:17;32.03;;;20.03;;
18210;SDS011;9231;48.852;9.882;2022-12-17T13:53:49;27.83;;;18.33;;
18210;SDS011;9231;48.852;9.882;2022-12-17T13:56:20;17.47;;;13.03;;
18210;SDS011;9231;48.852;9.882;2022-12-17T13:58:49;15.00;;;11.27;;
18210;SDS011;9231;48.852;9.882;2022-12-17T14:01:17;12.33;;;8.93;;
18210;SDS011;9231;48.852;9.882;2022-12-17T14:03:47;13.00;;;9.07;;
18210;SDS011;9231;48.852;9.882;2022-12-17T14:06:15;12.33;;;9.03;;
18210;SDS011;9231;48.852;9.882;2022-12-17T14:08:41;10.53;;;7.43;;
18210;SDS011;9231;48.852;9.882;2022-12-17T14:11:09;9.57;;;7.63;;
18210;SDS011;9231;48.852;9.882;2022-12-17T14:13:54;10.17;;;7.63;;
18210;SDS011;9231;48.852;9.882;2022-12-17T14:16:23;11.20;;;8.10;;
18210;SDS011;9231;48.852;9.882;2022-12-17T14:18:50;11.83;;;7.87;;
18210;SDS011;9231;48.852;9.882;2022-12-17T14:21:17;11.77;;;8.40;;
18210;SDS011;9231;48.852;9.882;2022-12-17T14:23:44;9.80;;;7.87;;
18210;SDS011;9231;48.852;9.882;2022-12-17T14:26:11;10.67;;;7.83;;
18210;SDS011;9231;48.852;9.882;2022-12-17T14:28:43;8.17;;;6.93;;
18210;SDS011;9231;48.852;9.882;2022-12-17T14:31:14;12.90;;;7.87;;
18210;SDS011;9231;48.852;9.882;2022-12-17T14:33:42;11.80;;;8.20;;
18210;SDS011;9231;48.852;9.882;2022-12-17T14:36:15;11.33;;;7.67;;
18210;SDS011;9231;48.852;9.882;2022-12-17T14:38:48;10.13;;;7.60;;
18210;SDS011;9231;48.852;9.882;2022-12-17T14:41:15;10.93;;;7.67;;
18210;SDS011;9231;48.852;9.882;2022-12-17T14:44:00;9.80;;;7.47;;
18210;SDS011;9231;48.852;9.882;2022-12-17T14:46:27;11.50;;;7.83;;
18210;SDS011;9231;48.852;9.882;2022-12-17T14:48:56;10.27;;;7.47;;
18210;SDS011;9231;48.852;9.882;2022-12-17T14:51:27;10.47;;;7.20;;
18210;SDS011;9231;48.852;9.882;2022-12-17T14:54:03;9.83;;;7.57;;
18210;SDS011;9231;48.852;9.882;2022-12-17T14:56:29;9.13;;;7.50;;
18210;SDS011;9231;48.852;9.882;2022-12-17T14:58:56;10.53;;;7.17;;
18210;SDS011;9231;48.852;9.882;2022-12-17T15:01:22;11.03;;;7.50;;
18210;SDS011;9231;48.852;9.882;2022-12-17T15:03:49;10.13;;;7.27;;
18210;SDS011;9231;48.852;9.882;2022-12-17T15:06:17;10.20;;;7.43;;
18210;SDS011;9231;48.852;9.882;2022-12-17T15:08:45;10.47;;;7.63;;
18210;SDS011;9231;48.852;9.882;2022-12-17T15:11:12;10.13;;;7.40;;
18210;SDS011;9231;48.852;9.882;2022-12-17T15:13:39;10.47;;;7.50;;
18210;SDS011;9231;48.852;9.882;2022-12-17T15:16:06;9.53;;;7.17;;
18210;SDS011;9231;48.852;9.882;2022-12-17T15:18:32;8.97;;;7.57;;
18210;SDS011;9231;48.852;9.882;2022-12-17T15:20:59;10.43;;;6.97;;
18210;SDS011;9231;48.852;9.882;2022-12-17T15:23:28;11.73;;;7.60;;
18210;SDS011;9231;48.852;9.882;2022-12-17T15:25:55;10.63;;;7.83;;
18210;SDS011;9231;48.852;9.882;2022-12-17T15:28:21;11.07;;;7.90;;
18210;SDS011;9231;48.852;9.882;2022-12-17T15:30:48;11.27;;;8.07;;
18210;SDS011;9231;48.852;9.882;2022-12-17T15:33:15;11.80;;;7.57;;
18210;SDS011;9231;48.852;9.882;2022-12-17T15:35:41;10.93;;;8.07;;
18210;SDS011;9231;48.852;9.882;2022-12-17T15:38:08;12.37;;;7.97;;
18210;SDS011;9231;48.852;9.882;2022-12-17T15:40:36;12.37;;;8.17;;
18210;SDS011;9231;48.852;9.882;2022-12-17T15:43:03;11.13;;;7.43;;
18210;SDS011;9231;48.852;9.882;2022-12-17T15:45:38;10.47;;;7.53;;
18210;SDS011;9231;48.852;9.882;2022-12-17T15:48:05;10.67;;;7.30;;
18210;SDS011;9231;48.852;9.882;2022-12-17T15:50:31;9.47;;;6.97;;
18210;SDS011;9231;48.852;9.882;2022-12-17T15:52:58;10.17;;;7.37;;
18210;SDS011;9231;48.852;9.882;2022-12-17T15:55:24;10.30;;;7.43;;
18210;SDS011;9231;48.852;9.882;2022-12-17T15:57:52;10.00;;;7.70;;
18210;SDS011;9231;48.852;9.882;2022-12-17T16:00:19;11.67;;;8.07;;
18210;SDS011;9231;48.852;9.882;2022-12-17T16:02:45;10.47;;;7.13;;
18210;SDS011;9231;48.852;9.882;2022-12-17T16:05:12;9.83;;;7.07;;
18210;SDS011;9231;48.852;9.882;2022-12-17T16:07:38;9.67;;;7.43;;
18210;SDS011;9231;48.852;9.882;2022-12-17T16:10:07;9.83;;;7.47;;
18210;SDS011;9231;48.852;9.882;2022-12-17T16:12:34;9.37;;;7.27;;
18210;SDS011;9231;48.852;9.882;2022-12-17T16:15:02;11.27;;;8.07;;